West Andover, Ohio
Current Conditions -  °F | °C
As of 7:53 PM on Monday 24 Nov 2014 (Local Time) from KHZY Reporting Station
Broken Clouds Broken Clouds  
Wind Chill: 36°   Ceiling: 4100
Heat Index: 44°   Visibility: 10mi
Dew Point: 31°   Wind: 21mph
Humidity: 60%   Direction: 240°WSW
Pressure: 29.67"   Gusts: 35mph
Location:  41.6317°N, 80.577°W
Report Text: KHZY 250053Z AUTO 24018G30KT 10SM BKN041 07/M01 A2967 RMK AO2 PK WND 24032/0029 SLP048 T00671006
Loading
Personal Weather Stations






























Interactive Weather Map New forecast layout! Learn more

10-Day Weather Forecast

Advertisements
Track Severe Weather on mobile